createdAt,value
2023-04-16T00:01:25.840Z,7.92
2023-04-16T00:03:52.506Z,7.87
2023-04-16T00:06:19.182Z,7.97
2023-04-16T00:08:45.686Z,7.95
2023-04-16T00:11:12.362Z,7.90
2023-04-16T00:13:38.843Z,8.00
2023-04-16T00:16:05.634Z,7.98
2023-04-16T00:18:32.088Z,8.04
2023-04-16T00:20:59.548Z,7.97
2023-04-16T00:23:25.977Z,8.03
2023-04-16T00:25:53.707Z,7.99
2023-04-16T00:28:20.245Z,7.97
2023-04-16T00:30:46.726Z,7.91
2023-04-16T00:33:13.319Z,7.94
2023-04-16T00:35:39.815Z,7.98
2023-04-16T00:38:06.332Z,8.01
2023-04-16T00:40:32.755Z,8.05
2023-04-16T00:42:59.218Z,8.03
2023-04-16T00:45:25.769Z,8.02
2023-04-16T00:47:52.273Z,7.97
2023-04-16T00:50:18.993Z,7.88
2023-04-16T00:52:47.638Z,7.96
2023-04-16T00:55:18.941Z,8.02
2023-04-16T00:57:46.105Z,8.03
2023-04-16T01:00:13.258Z,7.99
2023-04-16T01:02:39.852Z,8.04
2023-04-16T01:05:06.696Z,7.97
2023-04-16T01:07:33.187Z,7.92
2023-04-16T01:09:59.669Z,8.00
2023-04-16T01:12:26.309Z,8.01
2023-04-16T01:14:53.010Z,8.00
2023-04-16T01:17:19.493Z,8.03
2023-04-16T01:19:48.836Z,7.95
2023-04-16T01:22:15.270Z,8.06
2023-04-16T01:24:41.820Z,8.05
2023-04-16T01:27:08.253Z,8.05
2023-04-16T01:29:35.068Z,8.05
2023-04-16T01:32:01.543Z,8.03
2023-04-16T01:34:28.006Z,7.92
2023-04-16T01:36:54.472Z,8.07
2023-04-16T01:39:21.032Z,8.13
2023-04-16T01:41:47.470Z,8.12
2023-04-16T01:44:13.910Z,8.07
2023-04-16T01:46:40.633Z,8.10
2023-04-16T01:49:07.580Z,7.99
2023-04-16T01:51:34.224Z,8.05
2023-04-16T01:54:01.174Z,8.08
2023-04-16T01:56:27.638Z,7.98
2023-04-16T01:58:54.180Z,7.92
2023-04-16T02:01:20.814Z,8.07
2023-04-16T02:03:47.754Z,8.10
2023-04-16T02:06:14.859Z,8.07
2023-04-16T02:08:41.746Z,8.07
2023-04-16T02:11:08.220Z,8.09
2023-04-16T02:13:34.894Z,8.16
2023-04-16T02:16:02.534Z,8.13
2023-04-16T02:18:29.101Z,8.04
2023-04-16T02:20:58.625Z,8.12
2023-04-16T02:23:25.066Z,8.10
2023-04-16T02:25:51.636Z,8.08
2023-04-16T02:28:18.230Z,8.00
2023-04-16T02:30:44.752Z,8.14
2023-04-16T02:33:12.404Z,8.09
2023-04-16T02:35:39.656Z,8.08
2023-04-16T02:38:06.311Z,8.14
2023-04-16T02:40:32.951Z,8.05
2023-04-16T02:42:59.461Z,7.92
2023-04-16T02:45:25.958Z,7.91
2023-04-16T02:47:52.498Z,7.90
2023-04-16T02:50:19.116Z,7.78
2023-04-16T02:52:45.808Z,7.77
2023-04-16T02:55:12.360Z,7.65
2023-04-16T02:57:38.867Z,7.64
2023-04-16T03:00:05.942Z,7.60
2023-04-16T03:02:32.517Z,7.48
2023-04-16T03:05:00.315Z,7.50
2023-04-16T03:07:26.746Z,7.47
2023-04-16T03:09:53.170Z,7.52
2023-04-16T03:12:19.586Z,7.56
2023-04-16T03:14:46.163Z,7.70
2023-04-16T03:17:12.670Z,7.76
2023-04-16T03:19:39.185Z,7.75
2023-04-16T03:22:05.738Z,7.77
2023-04-16T03:24:32.225Z,7.82
2023-04-16T03:26:59.002Z,7.78
2023-04-16T03:29:26.755Z,7.82
2023-04-16T03:34:43.873Z,7.79
2023-04-16T03:37:12.012Z,7.76
2023-04-16T03:39:38.650Z,7.93
2023-04-16T03:42:05.172Z,7.77
2023-04-16T03:44:31.661Z,7.84
2023-04-16T03:46:58.166Z,7.91
2023-04-16T03:49:24.643Z,7.83
2023-04-16T03:51:51.238Z,7.90
2023-04-16T03:54:19.269Z,7.84
2023-04-16T03:56:47.147Z,7.80
2023-04-16T03:59:13.653Z,7.82
2023-04-16T04:01:40.547Z,7.82
2023-04-16T04:04:07.564Z,7.72
2023-04-16T04:06:34.043Z,7.68
2023-04-16T04:09:03.845Z,7.65
2023-04-16T04:11:30.321Z,7.78
2023-04-16T04:13:56.870Z,7.79
2023-04-16T04:16:23.404Z,7.82
2023-04-16T04:18:50.107Z,7.79
2023-04-16T04:21:16.577Z,7.72
2023-04-16T04:23:43.675Z,7.75
2023-04-16T04:26:10.196Z,7.75
2023-04-16T04:28:36.699Z,7.58
2023-04-16T04:31:03.231Z,7.49
2023-04-16T04:33:29.675Z,7.59
2023-04-16T04:35:56.405Z,7.53
2023-04-16T04:38:25.235Z,7.48
2023-04-16T04:40:52.841Z,7.50
2023-04-16T04:43:20.312Z,7.42
2023-04-16T04:45:46.951Z,7.35
2023-04-16T04:48:13.592Z,7.44
2023-04-16T04:50:41.013Z,7.30
2023-04-16T04:53:10.132Z,7.40
2023-04-16T04:55:38.260Z,7.38
2023-04-16T04:58:08.407Z,7.41
2023-04-16T05:00:36.282Z,7.40
2023-04-16T05:03:04.549Z,7.50
2023-04-16T05:05:31.142Z,7.46
2023-04-16T05:07:57.735Z,7.34
2023-04-16T05:10:24.245Z,7.38
2023-04-16T05:12:50.764Z,7.32
2023-04-16T05:15:17.213Z,7.35
2023-04-16T05:17:43.732Z,7.35
2023-04-16T05:20:10.571Z,7.25
2023-04-16T05:22:37.253Z,7.24
2023-04-16T05:25:04.056Z,7.33
2023-04-16T05:27:30.738Z,7.16
2023-04-16T05:29:57.151Z,7.23
2023-04-16T05:32:26.299Z,7.26
2023-04-16T05:34:52.871Z,7.31
2023-04-16T05:37:19.342Z,7.21
2023-04-16T05:39:45.879Z,7.27
2023-04-16T05:42:12.288Z,7.25
2023-04-16T05:44:38.819Z,7.23
2023-04-16T05:47:07.334Z,7.24
2023-04-16T05:49:33.836Z,7.23
2023-04-16T05:52:00.816Z,7.15
2023-04-16T05:54:27.220Z,7.26
2023-04-16T05:56:53.793Z,7.36
2023-04-16T05:59:20.812Z,7.33
2023-04-16T06:01:47.267Z,7.37
2023-04-16T06:04:13.909Z,7.46
2023-04-16T06:06:40.548Z,7.46
2023-04-16T06:09:10.885Z,7.46
2023-04-16T06:11:37.574Z,7.50
2023-04-16T06:14:04.006Z,7.48
2023-04-16T06:16:30.454Z,7.57
2023-04-16T06:18:56.884Z,7.60
2023-04-16T06:21:23.574Z,7.68
2023-04-16T06:23:51.667Z,7.61
2023-04-16T06:26:18.320Z,7.48
2023-04-16T06:28:44.750Z,7.70
2023-04-16T06:31:13.451Z,7.80
2023-04-16T06:33:39.929Z,7.83
2023-04-16T06:36:06.533Z,7.92
2023-04-16T06:38:32.974Z,7.98
2023-04-16T06:40:59.648Z,8.08
2023-04-16T06:43:26.324Z,8.15
2023-04-16T06:45:52.787Z,8.22
2023-04-16T06:48:19.204Z,8.24
2023-04-16T06:50:45.755Z,8.34
2023-04-16T06:53:12.215Z,8.44
2023-04-16T06:55:38.713Z,8.64
2023-04-16T06:58:05.124Z,8.70
2023-04-16T07:00:31.592Z,8.71
2023-04-16T07:02:58.722Z,8.75
2023-04-16T07:05:25.739Z,8.77
2023-04-16T07:07:52.260Z,8.91
2023-04-16T07:10:18.676Z,8.79
2023-04-16T07:12:45.207Z,8.88
2023-04-16T07:15:11.768Z,9.01
2023-04-16T07:17:38.332Z,9.05
2023-04-16T07:20:05.570Z,9.00
2023-04-16T07:22:32.220Z,9.11
2023-04-16T07:24:58.635Z,9.16
2023-04-16T07:27:25.201Z,9.17
2023-04-16T07:29:51.673Z,9.24
2023-04-16T07:32:18.170Z,9.32
2023-04-16T07:34:44.896Z,9.42
2023-04-16T07:37:11.364Z,9.43
2023-04-16T07:39:37.770Z,9.39
2023-04-16T07:42:04.266Z,9.42
2023-04-16T07:44:30.778Z,9.41
2023-04-16T07:46:57.234Z,9.30
2023-04-16T07:49:23.748Z,9.38
2023-04-16T07:51:50.293Z,9.43
2023-04-16T07:54:16.842Z,9.45
2023-04-16T07:56:47.384Z,9.53
2023-04-16T07:59:22.824Z,9.72
2023-04-16T08:01:50.361Z,9.81
2023-04-16T08:04:23.004Z,9.92
2023-04-16T08:06:50.800Z,10.07
2023-04-16T08:09:17.524Z,10.10
2023-04-16T08:11:43.917Z,10.23
2023-04-16T08:14:10.500Z,10.26
2023-04-16T08:16:36.907Z,10.43
2023-04-16T08:19:03.619Z,10.64
2023-04-16T08:21:33.240Z,10.72
2023-04-16T08:24:02.196Z,10.84
2023-04-16T08:26:28.642Z,11.13
2023-04-16T08:28:55.042Z,11.17
2023-04-16T08:31:21.637Z,11.33
2023-04-16T08:33:48.082Z,11.45
2023-04-16T08:36:14.520Z,11.58
2023-04-16T08:38:40.981Z,11.69
2023-04-16T08:41:12.073Z,11.87
2023-04-16T08:43:45.594Z,12.01
2023-04-16T08:46:18.624Z,12.05
2023-04-16T08:48:49.034Z,12.21
2023-04-16T08:51:19.307Z,12.44
2023-04-16T08:53:53.007Z,12.72
2023-04-16T08:56:23.891Z,12.82
2023-04-16T08:58:51.380Z,12.75
2023-04-16T09:01:19.036Z,12.78
2023-04-16T09:03:49.034Z,13.09
2023-04-16T09:06:16.578Z,13.41
2023-04-16T09:08:49.061Z,13.73
2023-04-16T09:11:20.481Z,13.94
2023-04-16T09:13:47.572Z,14.21
2023-04-16T09:16:14.921Z,14.31
2023-04-16T09:18:41.555Z,14.03
2023-04-16T09:21:11.125Z,13.99
2023-04-16T09:23:38.862Z,13.91
2023-04-16T09:26:06.006Z,13.84
2023-04-16T09:28:43.430Z,13.88
2023-04-16T09:31:20.091Z,14.11
2023-04-16T09:34:07.311Z,14.15
2023-04-16T09:36:34.576Z,14.22
2023-04-16T09:39:01.836Z,14.22
2023-04-16T09:41:30.097Z,14.23
2023-04-16T09:44:01.873Z,14.31
2023-04-16T09:46:34.644Z,14.47
2023-04-16T09:49:18.605Z,14.62
2023-04-16T09:51:52.686Z,14.77
2023-04-16T09:54:20.338Z,14.78
2023-04-16T09:56:46.960Z,14.93
2023-04-16T09:59:21.135Z,14.83
2023-04-16T10:01:49.508Z,14.67
2023-04-16T10:04:16.924Z,14.79
2023-04-16T10:06:44.126Z,15.18
2023-04-16T10:09:11.014Z,15.57
2023-04-16T10:11:37.810Z,15.99
2023-04-16T10:14:06.855Z,16.20
2023-04-16T10:16:34.555Z,16.15
2023-04-16T10:19:01.352Z,16.42
2023-04-16T10:21:33.762Z,16.28
2023-04-16T10:24:00.795Z,16.10
2023-04-16T10:26:29.005Z,16.79
2023-04-16T10:28:56.042Z,17.08
2023-04-16T10:31:22.873Z,17.38
2023-04-16T10:33:49.872Z,16.99
2023-04-16T10:36:22.657Z,16.91
2023-04-16T10:38:58.363Z,16.85
2023-04-16T10:41:29.165Z,16.82
2023-04-16T10:44:06.459Z,17.27
2023-04-16T10:46:36.754Z,17.40
2023-04-16T10:49:13.965Z,17.98
2023-04-16T10:51:41.227Z,17.85
2023-04-16T10:54:14.508Z,17.79
2023-04-16T10:56:41.011Z,17.63
2023-04-16T10:59:10.978Z,17.86
2023-04-16T11:01:42.349Z,18.04
2023-04-16T11:04:21.387Z,17.29
2023-04-16T11:07:02.144Z,16.93
2023-04-16T11:09:59.379Z,17.12
2023-04-16T11:12:42.109Z,17.08
2023-04-16T11:15:17.048Z,16.61
2023-04-16T11:17:45.704Z,16.54
2023-04-16T11:20:23.499Z,17.34
2023-04-16T11:22:51.782Z,17.28
2023-04-16T11:25:34.011Z,16.85
2023-04-16T11:28:02.316Z,16.72
2023-04-16T11:30:31.473Z,16.37
2023-04-16T11:32:57.917Z,16.07
2023-04-16T11:35:24.481Z,15.93
2023-04-16T11:37:56.329Z,15.73
2023-04-16T11:40:22.824Z,15.40
2023-04-16T11:42:49.282Z,15.13
2023-04-16T11:45:15.678Z,15.11
2023-04-16T11:47:45.676Z,15.25
2023-04-16T11:50:25.055Z,15.49
2023-04-16T11:52:53.692Z,15.66
2023-04-16T11:55:20.662Z,15.60
2023-04-16T11:57:47.150Z,15.59
2023-04-16T12:00:15.022Z,15.65
2023-04-16T12:02:43.340Z,15.64
2023-04-16T12:05:35.616Z,15.72
2023-04-16T12:08:07.331Z,15.75
2023-04-16T12:10:52.468Z,15.76
2023-04-16T12:13:19.705Z,15.71
2023-04-16T12:15:48.218Z,15.48
2023-04-16T12:18:18.345Z,15.37
2023-04-16T12:20:59.397Z,15.05
2023-04-16T12:23:27.953Z,15.27
2023-04-16T12:25:55.274Z,15.08
2023-04-16T12:28:33.577Z,14.93
2023-04-16T12:31:01.689Z,15.03
2023-04-16T12:33:28.339Z,15.11
2023-04-16T12:35:54.929Z,15.12
2023-04-16T12:38:24.076Z,15.01
2023-04-16T12:40:51.231Z,15.05
2023-04-16T12:43:17.900Z,15.08
2023-04-16T12:45:44.545Z,15.05
2023-04-16T12:48:11.496Z,15.07
2023-04-16T12:50:39.596Z,15.38
2023-04-16T12:53:06.253Z,16.02
2023-04-16T12:55:32.874Z,16.52
2023-04-16T12:57:59.288Z,16.58
2023-04-16T13:00:25.789Z,16.56
2023-04-16T13:02:52.273Z,16.60
2023-04-16T13:05:19.307Z,16.60
2023-04-16T13:07:46.147Z,16.66
2023-04-16T13:10:13.632Z,16.91
2023-04-16T13:12:40.259Z,17.15
2023-04-16T13:15:07.335Z,17.08
2023-04-16T13:17:33.774Z,17.22
2023-04-16T13:20:00.326Z,17.05
2023-04-16T13:22:26.787Z,16.77
2023-04-16T13:24:53.290Z,16.56
2023-04-16T13:27:20.301Z,16.32
2023-04-16T13:29:47.123Z,16.15
2023-04-16T13:32:14.700Z,16.32
2023-04-16T13:34:41.151Z,16.34
2023-04-16T13:37:07.744Z,16.33
2023-04-16T13:39:34.171Z,16.26
2023-04-16T13:42:00.694Z,16.24
2023-04-16T13:44:27.133Z,16.13
2023-04-16T13:46:53.635Z,16.14
2023-04-16T13:49:20.230Z,16.22
2023-04-16T13:51:46.786Z,16.39
2023-04-16T13:54:13.247Z,16.44
2023-04-16T13:56:40.784Z,16.34
2023-04-16T13:59:07.977Z,16.22
2023-04-16T14:01:34.633Z,16.01
2023-04-16T14:04:06.276Z,16.09
2023-04-16T14:06:34.334Z,16.39
2023-04-16T14:09:01.271Z,16.88
2023-04-16T14:11:27.847Z,17.10
2023-04-16T14:13:54.793Z,17.26
2023-04-16T14:16:21.319Z,17.42
2023-04-16T14:18:47.913Z,17.52
2023-04-16T14:21:14.416Z,17.58
2023-04-16T14:23:41.125Z,17.48
2023-04-16T14:26:07.596Z,17.54
2023-04-16T14:28:35.534Z,17.62
2023-04-16T14:31:02.075Z,17.57
2023-04-16T14:33:28.564Z,17.59
2023-04-16T14:35:55.146Z,17.64
2023-04-16T14:38:21.921Z,17.44
2023-04-16T14:40:48.736Z,17.04
2023-04-16T14:43:15.501Z,16.79
2023-04-16T14:45:42.002Z,16.88
2023-04-16T14:48:08.584Z,17.18
2023-04-16T14:50:38.898Z,17.22
2023-04-16T14:53:05.637Z,17.37
2023-04-16T14:55:32.424Z,17.61
2023-04-16T14:57:59.728Z,17.56
2023-04-16T15:00:26.451Z,17.42
2023-04-16T15:02:54.215Z,17.40
2023-04-16T15:05:20.834Z,17.33
2023-04-16T15:07:47.525Z,17.19
2023-04-16T15:10:14.054Z,17.05
2023-04-16T15:12:40.753Z,16.97
2023-04-16T15:15:08.622Z,16.97
2023-04-16T15:17:35.427Z,17.03
2023-04-16T15:20:02.072Z,17.03
2023-04-16T15:22:28.597Z,17.16
2023-04-16T15:24:55.104Z,17.15
2023-04-16T15:27:21.643Z,17.05
2023-04-16T15:29:49.399Z,17.04
2023-04-16T15:32:16.111Z,17.67
2023-04-16T15:34:42.569Z,19.58
2023-04-16T15:37:09.667Z,19.22
2023-04-16T15:39:36.097Z,19.89
2023-04-16T15:42:07.054Z,19.41
2023-04-16T15:44:34.505Z,18.76
2023-04-16T15:47:01.083Z,18.35
2023-04-16T15:49:27.638Z,17.79
2023-04-16T15:51:54.289Z,17.06
2023-04-16T15:54:20.790Z,16.66
2023-04-16T15:56:47.333Z,16.28
2023-04-16T15:59:13.817Z,15.99
2023-04-16T16:01:40.859Z,15.81
2023-04-16T16:04:08.028Z,15.59
2023-04-16T16:06:35.009Z,15.37
2023-04-16T16:09:01.768Z,15.24
2023-04-16T16:11:28.471Z,15.22
2023-04-16T16:13:55.187Z,15.13
2023-04-16T16:16:22.152Z,15.02
2023-04-16T16:18:48.772Z,14.80
2023-04-16T16:21:15.134Z,14.78
2023-04-16T16:23:41.537Z,14.80
2023-04-16T16:26:07.878Z,14.80
2023-04-16T16:28:37.480Z,14.82
2023-04-16T16:31:04.630Z,14.81
2023-04-16T16:33:30.959Z,14.73
2023-04-16T16:35:57.420Z,14.68
2023-04-16T16:38:23.722Z,14.63
2023-04-16T16:40:50.171Z,14.62
2023-04-16T16:43:19.016Z,14.49
2023-04-16T16:45:46.505Z,14.37
2023-04-16T16:48:12.982Z,14.29
2023-04-16T16:50:39.485Z,14.24
2023-04-16T16:53:06.238Z,14.11
2023-04-16T16:55:32.753Z,14.00
2023-04-16T16:57:59.262Z,13.87
2023-04-16T17:00:25.826Z,13.85
2023-04-16T17:02:52.625Z,13.69
2023-04-16T17:05:19.849Z,13.70
2023-04-16T17:07:46.687Z,13.65
2023-04-16T17:10:19.959Z,13.58
2023-04-16T17:12:48.358Z,13.51
2023-04-16T17:15:15.560Z,13.52
2023-04-16T17:17:42.484Z,13.53
2023-04-16T17:20:14.645Z,13.47
2023-04-16T17:22:42.049Z,13.39
2023-04-16T17:25:08.860Z,13.34
2023-04-16T17:27:35.842Z,13.30
2023-04-16T17:30:03.485Z,13.24
2023-04-16T17:32:32.501Z,13.29
2023-04-16T17:35:00.495Z,13.19
2023-04-16T17:37:27.361Z,13.17
2023-04-16T17:39:53.921Z,13.07
2023-04-16T17:42:20.561Z,12.96
2023-04-16T17:44:47.233Z,12.88
2023-04-16T17:47:13.804Z,12.81
2023-04-16T17:49:41.840Z,12.71
2023-04-16T17:52:08.377Z,12.67
2023-04-16T17:54:34.849Z,12.64
2023-04-16T17:57:02.244Z,12.57
2023-04-16T17:59:28.963Z,12.41
2023-04-16T18:01:56.742Z,12.43
2023-04-16T18:04:23.659Z,12.06
2023-04-16T18:06:50.343Z,12.12
2023-04-16T18:09:17.195Z,12.27
2023-04-16T18:11:43.695Z,12.22
2023-04-16T18:14:11.597Z,12.16
2023-04-16T18:16:38.445Z,12.10
2023-04-16T18:19:05.552Z,12.00
2023-04-16T18:21:32.150Z,11.95
2023-04-16T18:24:00.859Z,11.91
2023-04-16T18:26:29.633Z,11.91
2023-04-16T18:28:56.647Z,11.85
2023-04-16T18:31:23.244Z,11.73
2023-04-16T18:33:57.244Z,11.72
2023-04-16T18:36:27.503Z,11.74
2023-04-16T18:39:00.866Z,11.72
2023-04-16T18:41:28.510Z,11.61
2023-04-16T18:43:55.047Z,11.71
2023-04-16T18:46:21.630Z,11.66
2023-04-16T18:48:48.518Z,11.35
2023-04-16T18:51:16.262Z,11.54
2023-04-16T18:53:44.368Z,11.28
2023-04-16T18:56:11.667Z,11.46
2023-04-16T18:58:38.598Z,11.24
2023-04-16T19:01:54.331Z,11.53
2023-04-16T19:04:21.318Z,11.10
2023-04-16T19:06:48.527Z,11.26
2023-04-16T19:09:16.005Z,11.28
2023-04-16T19:11:42.874Z,11.21
2023-04-16T19:14:09.309Z,11.27
2023-04-16T19:16:35.797Z,11.35
2023-04-16T19:19:02.408Z,11.34
2023-04-16T19:21:28.870Z,11.26
2023-04-16T19:23:55.385Z,11.35
2023-04-16T19:26:21.857Z,11.26
2023-04-16T19:28:48.283Z,11.32
2023-04-16T19:31:16.095Z,11.35
2023-04-16T19:33:42.599Z,11.39
2023-04-16T19:36:09.053Z,11.38
2023-04-16T19:38:35.486Z,11.31
2023-04-16T19:41:01.923Z,11.24
2023-04-16T19:43:30.809Z,11.17
2023-04-16T19:45:57.764Z,11.07
2023-04-16T19:48:24.349Z,11.14
2023-04-16T19:50:51.202Z,11.20
2023-04-16T19:53:17.861Z,11.15
2023-04-16T19:55:44.330Z,11.10
2023-04-16T19:58:10.953Z,11.15
2023-04-16T20:00:40.764Z,11.10
2023-04-16T20:03:07.479Z,11.18
2023-04-16T20:05:33.974Z,11.08
2023-04-16T20:08:00.552Z,11.07
2023-04-16T20:10:27.765Z,11.10
2023-04-16T20:12:54.219Z,11.07
2023-04-16T20:15:20.850Z,11.05
2023-04-16T20:17:47.404Z,11.08
2023-04-16T20:20:15.761Z,11.09
2023-04-16T20:22:42.830Z,11.12
2023-04-16T20:25:09.776Z,11.10
2023-04-16T20:27:36.253Z,11.09
2023-04-16T20:30:03.602Z,11.11
2023-04-16T20:32:30.138Z,11.10
2023-04-16T20:34:56.596Z,11.07
2023-04-16T20:37:23.092Z,11.11
2023-04-16T20:39:50.264Z,11.14
2023-04-16T20:42:16.743Z,11.01
2023-04-16T20:44:50.305Z,11.04
2023-04-16T20:47:17.215Z,11.03
2023-04-16T20:49:46.462Z,11.06
2023-04-16T20:52:13.886Z,11.06
2023-04-16T20:54:40.519Z,11.04
2023-04-16T20:57:07.615Z,11.03
2023-04-16T20:59:34.077Z,10.99
2023-04-16T21:02:00.784Z,10.94
2023-04-16T21:04:27.420Z,10.94
2023-04-16T21:06:53.982Z,10.83
2023-04-16T21:09:20.788Z,10.82
2023-04-16T21:11:47.277Z,10.88
2023-04-16T21:14:13.791Z,10.79
2023-04-16T21:16:40.384Z,10.79
2023-04-16T21:19:08.625Z,10.78
2023-04-16T21:21:35.341Z,10.80
2023-04-16T21:24:01.822Z,10.75
2023-04-16T21:26:28.361Z,10.79
2023-04-16T21:28:55.251Z,10.76
2023-04-16T21:31:21.954Z,10.78
2023-04-16T21:33:48.509Z,10.78
2023-04-16T21:36:15.536Z,10.71
2023-04-16T21:38:42.056Z,10.73
2023-04-16T21:41:08.485Z,10.71
2023-04-16T21:43:34.914Z,10.75
2023-04-16T21:46:01.409Z,10.73
2023-04-16T21:48:28.502Z,10.73
2023-04-16T21:50:59.828Z,10.69
2023-04-16T21:53:28.049Z,10.66
2023-04-16T21:55:54.567Z,10.66
2023-04-16T21:58:21.002Z,10.67
2023-04-16T22:00:47.549Z,10.69
2023-04-16T22:03:14.872Z,10.67
2023-04-16T22:05:41.412Z,10.62
2023-04-16T22:08:23.610Z,10.67
2023-04-16T22:10:51.364Z,10.62
2023-04-16T22:13:18.078Z,10.61
2023-04-16T22:15:44.588Z,10.63
2023-04-16T22:18:11.493Z,10.65
2023-04-16T22:20:39.249Z,10.62
2023-04-16T22:23:08.937Z,10.67
2023-04-16T22:25:35.484Z,10.63
2023-04-16T22:28:02.018Z,10.58
2023-04-16T22:30:28.484Z,10.60
2023-04-16T22:32:55.279Z,10.57
2023-04-16T22:35:21.882Z,10.60
2023-04-16T22:37:48.322Z,10.58
2023-04-16T22:40:15.663Z,10.61
2023-04-16T22:42:42.281Z,10.59
2023-04-16T22:45:09.004Z,10.51
2023-04-16T22:47:35.641Z,10.55
2023-04-16T22:50:03.296Z,10.53
2023-04-16T22:52:29.791Z,10.53
2023-04-16T22:54:56.210Z,10.44
2023-04-16T22:57:25.359Z,10.51
2023-04-16T22:59:52.992Z,10.49
2023-04-16T23:02:20.703Z,10.47
2023-04-16T23:04:47.914Z,10.45
2023-04-16T23:07:15.586Z,10.48
2023-04-16T23:09:45.316Z,10.43
2023-04-16T23:12:11.768Z,10.47
2023-04-16T23:14:38.192Z,10.44
2023-04-16T23:17:04.752Z,10.41
2023-04-16T23:19:31.709Z,10.37
2023-04-16T23:21:58.201Z,10.40
2023-04-16T23:24:24.881Z,10.34
2023-04-16T23:26:52.442Z,10.30
2023-04-16T23:29:19.739Z,10.30
2023-04-16T23:31:46.271Z,10.29
2023-04-16T23:34:12.780Z,10.25
2023-04-16T23:36:40.573Z,10.27
2023-04-16T23:39:07.068Z,10.27
2023-04-16T23:41:33.519Z,10.25
2023-04-16T23:43:59.964Z,10.20
2023-04-16T23:46:26.491Z,10.22
2023-04-16T23:48:55.109Z,10.18
2023-04-16T23:51:21.622Z,10.17
2023-04-16T23:53:48.053Z,10.14
2023-04-16T23:56:15.394Z,10.14
2023-04-16T23:58:41.809Z,10.04
